Time;durP1;ratioP1;P1;durP2;ratioP2;P2;SDS_P1;SDS_P2;PMS_P1;PMS_P2;Temp;Humidity;BMP_temperature;BMP_pressure;BME280_temperature;BME280_humidity;BME280_pressure;Samples;Min_cycle;Max_cycle;Signal;HPM_P1;HPM_P2
2022/02/26 00:00:42;;;;;;;13.20;7.80;;;;;;;2.02;74.02;100324.00;2618480;54;20029;-67
2022/02/26 00:03:15;;;;;;;9.52;7.78;;;;;;;2.01;74.08;100321.50;2618834;54;20105;-67
2022/02/26 00:05:47;;;;;;;17.80;7.45;;;;;;;2.06;74.18;100332.47;2618896;54;20026;-67
2022/02/26 00:08:18;;;;;;;22.70;8.63;;;;;;;2.15;74.20;100334.44;2618149;46;20109;-66
2022/02/26 00:10:47;;;;;;;12.90;7.68;;;;;;;2.24;73.78;100328.63;2618899;54;20045;-67
2022/02/26 00:13:17;;;;;;;12.75;8.00;;;;;;;2.23;74.14;100334.78;2619707;39;20422;-67
2022/02/26 00:15:47;;;;;;;13.55;7.80;;;;;;;2.26;73.90;100344.19;2618533;54;20065;-66
2022/02/26 00:18:19;;;;;;;12.43;7.70;;;;;;;2.30;74.23;100341.28;2618459;54;20030;-68
2022/02/26 00:20:49;;;;;;;16.17;8.40;;;;;;;2.35;73.26;100340.97;2618953;54;20031;-66
2022/02/26 00:23:19;;;;;;;20.70;8.05;;;;;;;2.36;73.62;100342.63;2619009;54;20040;-68
2022/02/26 00:25:49;;;;;;;15.48;7.80;;;;;;;2.42;73.88;100344.84;2619466;39;20437;-70
2022/02/26 00:28:20;;;;;;;14.60;8.15;;;;;;;2.46;73.85;100331.47;2619010;54;20038;-68
2022/02/26 00:30:51;;;;;;;14.60;7.50;;;;;;;2.54;73.75;100338.78;2618353;54;20038;-68
2022/02/26 00:33:24;;;;;;;17.95;8.40;;;;;;;2.57;73.60;100342.94;2619987;54;20057;-66
2022/02/26 00:35:54;;;;;;;17.17;7.63;;;;;;;2.66;73.87;100343.19;2619407;54;20046;-67
2022/02/26 00:38:23;;;;;;;14.88;8.20;;;;;;;2.73;73.57;100346.19;2618562;47;20081;-67
2022/02/26 00:40:53;;;;;;;16.92;9.15;;;;;;;2.76;73.60;100343.38;2618781;54;20126;-68
2022/02/26 00:43:24;;;;;;;18.58;10.35;;;;;;;2.65;72.72;100359.81;2618722;54;20037;-67
2022/02/26 00:45:54;;;;;;;18.77;9.02;;;;;;;2.45;72.86;100357.69;2618710;54;20047;-67
2022/02/26 00:51:12;;;;;;;15.77;8.25;;;;;;;2.12;73.69;100365.94;2618305;54;20119;-67
2022/02/26 00:53:42;;;;;;;18.23;9.05;;;;;;;2.21;74.39;100366.22;2618909;54;20053;-67
2022/02/26 00:56:21;;;;;;;19.13;10.18;;;;;;;2.34;74.27;100374.06;2618367;54;20053;-66
2022/02/26 00:58:56;;;;;;;17.33;8.90;;;;;;;2.41;74.00;100372.72;2619432;39;20438;-67
2022/02/26 01:01:26;;;;;;;19.10;8.82;;;;;;;2.51;74.07;100378.16;2618626;47;20038;-68
2022/02/26 01:03:58;;;;;;;17.00;9.30;;;;;;;2.51;74.03;100374.72;2618584;54;20023;-66
2022/02/26 01:06:28;;;;;;;15.85;9.57;;;;;;;2.52;73.93;100373.75;2618416;47;20015;-66
2022/02/26 01:08:58;;;;;;;19.05;8.30;;;;;;;2.42;73.63;100369.16;2618744;54;20022;-67
2022/02/26 01:11:27;;;;;;;17.50;8.52;;;;;;;2.40;73.69;100363.19;2618558;54;20041;-67
2022/02/26 01:13:57;;;;;;;18.42;9.90;;;;;;;2.41;73.57;100369.28;2618616;39;20140;-66
2022/02/26 01:16:32;;;;;;;14.52;8.73;;;;;;;2.43;73.31;100372.59;2619032;39;20420;-66
2022/02/26 01:19:05;;;;;;;14.48;9.07;;;;;;;2.31;73.14;100376.03;2618398;54;20076;-67
2022/02/26 01:21:35;;;;;;;15.57;9.32;;;;;;;2.23;73.74;100379.97;2618421;54;20042;-67
2022/02/26 01:24:05;;;;;;;18.33;8.57;;;;;;;2.31;73.87;100387.31;2617814;54;20030;-67
2022/02/26 01:26:36;;;;;;;17.15;9.25;;;;;;;2.34;73.94;100381.88;2618954;54;20081;-68
2022/02/26 01:29:07;;;;;;;16.40;8.55;;;;;;;2.35;74.10;100380.94;2618179;47;20033;-67
2022/02/26 01:31:39;;;;;;;24.23;10.25;;;;;;;2.35;74.21;100386.16;2618160;47;20022;-65
2022/02/26 01:34:12;;;;;;;16.63;8.90;;;;;;;2.41;73.96;100383.16;2618721;54;20034;-66
2022/02/26 01:36:41;;;;;;;14.65;9.10;;;;;;;2.39;73.51;100371.97;2618668;54;20045;-67
2022/02/26 01:39:12;;;;;;;16.45;9.07;;;;;;;2.40;73.85;100380.63;2618810;46;20058;-67
2022/02/26 01:41:43;;;;;;;17.90;10.40;;;;;;;2.45;73.89;100386.41;2619497;54;20557;-68
2022/02/26 01:44:13;;;;;;;18.02;8.95;;;;;;;2.36;73.29;100384.38;2621932;54;20031;-66
2022/02/26 01:46:42;;;;;;;15.10;8.65;;;;;;;2.17;74.00;100390.81;2621530;54;20046;-66
2022/02/26 01:49:15;;;;;;;16.83;9.48;;;;;;;2.18;73.92;100395.09;2622174;54;20035;-66
2022/02/26 01:51:44;;;;;;;18.63;9.20;;;;;;;2.19;74.23;100385.50;2621961;54;20035;-67
2022/02/26 01:54:14;;;;;;;14.05;8.25;;;;;;;2.23;74.20;100384.34;2622050;54;20057;-67
2022/02/26 01:56:43;;;;;;;13.75;7.88;;;;;;;2.34;74.74;100381.06;2621845;47;20049;-66
2022/02/26 01:59:13;;;;;;;16.63;8.32;;;;;;;2.42;74.44;100384.00;2622227;54;20034;-66
2022/02/26 02:01:43;;;;;;;19.30;9.35;;;;;;;2.44;74.17;100388.16;2620699;54;20065;-67
2022/02/26 02:04:16;;;;;;;18.48;8.02;;;;;;;2.38;73.96;100385.97;2618759;54;20649;-65
2022/02/26 02:06:46;;;;;;;16.55;7.80;;;;;;;2.27;73.78;100391.03;2618899;54;20030;-66
2022/02/26 02:09:16;;;;;;;18.08;8.02;;;;;;;2.21;73.53;100392.28;2618772;54;20034;-66
2022/02/26 02:11:45;;;;;;;21.13;8.07;;;;;;;2.24;73.99;100393.84;2618052;54;20085;-66
2022/02/26 02:14:15;;;;;;;11.98;7.65;;;;;;;2.29;74.02;100389.19;2618563;54;20034;-66
2022/02/26 02:16:44;;;;;;;13.95;7.43;;;;;;;2.43;74.22;100396.94;2618697;54;20085;-66
2022/02/26 02:19:17;;;;;;;13.23;7.90;;;;;;;2.46;73.54;100399.34;2618422;54;20049;-65
2022/02/26 02:21:46;;;;;;;13.70;7.68;;;;;;;2.45;73.28;100402.06;2618709;54;20038;-65
2022/02/26 02:24:18;;;;;;;13.00;7.80;;;;;;;2.44;73.52;100397.75;2618609;54;20022;-66
2022/02/26 02:26:50;;;;;;;12.10;8.35;;;;;;;2.45;73.50;100404.69;2618485;54;20037;-66
2022/02/26 02:29:20;;;;;;;16.88;8.80;;;;;;;2.32;73.71;100416.84;2618885;54;20069;-66
2022/02/26 02:31:49;;;;;;;13.20;7.75;;;;;;;2.16;73.74;100409.16;2619010;54;20568;-65
2022/02/26 02:34:20;;;;;;;15.25;8.07;;;;;;;2.06;73.72;100414.16;2619295;54;20034;-66
2022/02/26 02:36:50;;;;;;;14.38;7.80;;;;;;;2.07;74.22;100415.81;2619009;54;20030;-67
2022/02/26 02:39:23;;;;;;;16.27;8.80;;;;;;;2.16;74.03;100432.66;2619267;54;20033;-65
2022/02/26 02:41:53;;;;;;;15.13;9.02;;;;;;;2.11;73.38;100434.72;2618812;47;20057;-65
2022/02/26 02:44:22;;;;;;;15.30;8.02;;;;;;;1.97;73.94;100425.19;2618521;47;20022;-65
2022/02/26 02:46:52;;;;;;;11.25;8.20;;;;;;;2.09;74.55;100434.00;2619505;54;20042;-65
2022/02/26 02:49:23;;;;;;;15.25;8.23;;;;;;;2.13;74.14;100440.69;2619571;54;20037;-65
2022/02/26 02:51:53;;;;;;;12.95;7.68;;;;;;;2.23;74.67;100446.97;2618516;47;20118;-66
2022/02/26 02:54:27;;;;;;;14.02;8.27;;;;;;;2.33;74.43;100444.63;2618891;54;20554;-66
2022/02/26 02:56:57;;;;;;;13.75;7.55;;;;;;;2.35;74.31;100448.81;2619651;54;20035;-66
2022/02/26 02:59:27;;;;;;;12.32;8.02;;;;;;;2.35;73.87;100451.41;2620797;54;20030;-65
2022/02/26 03:01:56;;;;;;;15.35;8.90;;;;;;;2.32;73.97;100451.59;2623161;54;20046;-66
2022/02/26 03:04:27;;;;;;;15.85;8.50;;;;;;;2.34;74.26;100447.13;2623170;54;20026;-65
2022/02/26 03:06:58;;;;;;;13.57;8.60;;;;;;;2.35;73.63;100454.00;2622903;54;20026;-65
2022/02/26 03:09:31;;;;;;;17.08;9.40;;;;;;;2.35;73.70;100450.56;2623112;54;20530;-65
2022/02/26 03:12:00;;;;;;;15.98;9.30;;;;;;;2.37;73.91;100460.00;2623073;54;20085;-65
2022/02/26 03:14:30;;;;;;;15.70;8.63;;;;;;;2.36;74.22;100450.47;2621662;54;20034;-65
2022/02/26 03:17:00;;;;;;;11.95;8.02;;;;;;;2.35;74.00;100456.63;2620984;39;20123;-65
2022/02/26 03:19:32;;;;;;;14.48;9.32;;;;;;;2.34;73.81;100449.75;2621833;39;20425;-65
2022/02/26 03:22:02;;;;;;;18.73;8.90;;;;;;;2.31;74.04;100460.38;2623301;54;20031;-65
2022/02/26 03:24:36;;;;;;;16.73;8.50;;;;;;;2.33;74.16;100453.28;2622239;47;20041;-65
2022/02/26 03:27:06;;;;;;;25.05;9.57;;;;;;;2.37;73.92;100459.16;2622998;54;20061;-66
2022/02/26 03:29:35;;;;;;;17.02;8.90;;;;;;;2.34;74.16;100457.56;2622471;47;20078;-66
2022/02/26 03:32:06;;;;;;;17.30;9.02;;;;;;;2.35;74.20;100451.41;2621619;47;20537;-66
2022/02/26 03:34:39;;;;;;;19.00;9.40;;;;;;;2.41;73.80;100452.81;2618753;54;20049;-66
2022/02/26 03:37:09;;;;;;;18.92;9.73;;;;;;;2.26;73.72;100456.41;2618314;54;20077;-66
2022/02/26 03:39:41;;;;;;;17.85;9.07;;;;;;;2.20;74.16;100460.22;2619980;54;20026;-65
2022/02/26 03:42:11;;;;;;;17.20;9.25;;;;;;;2.17;73.61;100468.25;2619806;54;20034;-66
2022/02/26 03:44:43;;;;;;;13.18;8.30;;;;;;;2.10;73.88;100470.41;2620512;39;20442;-66
2022/02/26 03:47:13;;;;;;;15.40;8.57;;;;;;;2.08;74.51;100464.47;2620668;54;20030;-66
2022/02/26 03:49:42;;;;;;;13.95;7.53;;;;;;;2.16;74.66;100464.81;2621687;54;20053;-66
2022/02/26 03:52:12;;;;;;;18.77;7.63;;;;;;;2.22;74.70;100471.41;2622708;54;20035;-66
2022/02/26 03:54:44;;;;;;;14.63;8.70;;;;;;;2.31;74.20;100475.19;2620726;49;20034;-66
2022/02/26 03:57:14;;;;;;;16.02;8.32;;;;;;;2.33;73.49;100475.94;2618895;54;20038;-66
2022/02/26 03:59:44;;;;;;;15.23;8.50;;;;;;;2.11;73.48;100479.91;2618674;54;20031;-67
2022/02/26 04:02:13;;;;;;;11.88;8.52;;;;;;;2.10;74.14;100491.28;2618810;54;20026;-66
2022/02/26 04:04:45;;;;;;;13.10;8.95;;;;;;;2.07;74.31;100482.81;2619159;54;20030;-64
2022/02/26 04:07:15;;;;;;;20.08;9.80;;;;;;;2.09;74.32;100494.00;2619341;54;20046;-66
2022/02/26 04:09:48;;;;;;;15.45;8.27;;;;;;;2.13;74.16;100498.94;2620945;54;20034;-66
2022/02/26 04:12:18;;;;;;;18.95;8.05;;;;;;;2.15;74.23;100501.44;2623101;54;20034;-64
2022/02/26 04:14:47;;;;;;;18.58;9.00;;;;;;;2.14;74.11;100491.94;2620302;54;20077;-66
2022/02/26 04:17:17;;;;;;;16.00;7.60;;;;;;;2.13;74.29;100491.09;2618996;54;20054;-64
2022/02/26 04:19:51;;;;;;;17.57;8.57;;;;;;;2.11;74.20;100494.72;2618794;54;20064;-64
2022/02/26 04:22:20;;;;;;;16.15;9.00;;;;;;;2.08;73.67;100492.31;2618899;54;20073;-65
2022/02/26 04:24:53;;;;;;;16.55;9.20;;;;;;;1.89;73.53;100496.09;2618368;54;20037;-65
2022/02/26 04:27:22;;;;;;;18.83;9.32;;;;;;;1.70;74.01;100503.38;2618821;54;20057;-65
2022/02/26 04:29:52;;;;;;;18.02;9.77;;;;;;;1.59;74.60;100504.03;2619628;54;20027;-65
2022/02/26 04:32:42;;;;;;;17.92;8.25;;;;;;;1.63;74.94;100507.28;2621575;54;20102;-66
2022/02/26 04:35:12;;;;;;;19.05;10.07;;;;;;;1.74;75.27;100515.28;2620910;54;20161;-65
2022/02/26 04:37:42;;;;;;;20.17;9.60;;;;;;;1.75;75.09;100509.13;2618978;54;20593;-65
2022/02/26 04:40:16;;;;;;;16.02;8.90;;;;;;;1.78;74.67;100513.34;2618943;54;20536;-65
2022/02/26 04:42:46;;;;;;;20.95;10.00;;;;;;;1.70;75.21;100516.41;2619488;39;20421;-65
2022/02/26 04:45:16;;;;;;;15.38;9.68;;;;;;;1.74;75.50;100528.31;2618864;54;20553;-65
2022/02/26 04:47:46;;;;;;;20.48;9.75;;;;;;;1.77;75.27;100528.16;2618155;54;20057;-65
2022/02/26 04:50:17;;;;;;;15.27;8.88;;;;;;;1.83;75.09;100529.53;2618483;54;20035;-65
2022/02/26 04:52:47;;;;;;;14.48;8.55;;;;;;;1.87;75.26;100523.19;2618376;47;20034;-67
2022/02/26 04:55:19;;;;;;;15.80;8.98;;;;;;;1.94;74.68;100524.50;2617946;54;20030;-67
2022/02/26 04:57:50;;;;;;;13.85;8.15;;;;;;;1.90;74.29;100528.22;2618086;47;20034;-66
2022/02/26 05:00:20;;;;;;;12.88;8.57;;;;;;;1.84;74.59;100529.44;2619124;54;20034;-65
2022/02/26 05:02:49;;;;;;;12.85;8.00;;;;;;;1.85;74.63;100530.28;2618791;54;20034;-65
2022/02/26 05:05:19;;;;;;;11.77;8.05;;;;;;;1.84;74.49;100534.66;2618582;54;20029;-66
2022/02/26 05:07:49;;;;;;;12.63;7.75;;;;;;;1.83;74.36;100532.13;2618794;54;20038;-66
2022/02/26 05:10:21;;;;;;;12.52;8.40;;;;;;;1.84;74.15;100531.22;2618342;54;20042;-70
2022/02/26 05:12:50;;;;;;;10.85;7.97;;;;;;;1.86;74.57;100526.72;2619013;39;20155;-67
2022/02/26 05:15:20;;;;;;;12.00;7.70;;;;;;;1.90;74.42;100529.06;2618579;54;20034;-66
2022/02/26 05:17:50;;;;;;;12.30;7.82;;;;;;;1.89;74.45;100527.38;2619169;54;20049;-67
2022/02/26 05:20:19;;;;;;;16.02;8.63;;;;;;;1.88;74.38;100530.09;2618924;54;20026;-67
2022/02/26 05:22:49;;;;;;;16.63;8.52;;;;;;;1.83;74.13;100532.97;2618383;54;20038;-66
2022/02/26 05:25:21;;;;;;;13.15;8.18;;;;;;;1.83;74.49;100527.75;2618035;47;20549;-66
2022/02/26 05:27:51;;;;;;;12.77;8.18;;;;;;;1.81;74.57;100534.00;2618967;54;20039;-66
2022/02/26 05:30:21;;;;;;;14.70;8.93;;;;;;;1.74;73.95;100538.75;2618830;54;20033;-66
2022/02/26 05:32:50;;;;;;;17.88;8.07;;;;;;;1.70;74.58;100540.72;2618705;54;20023;-66
2022/02/26 05:35:20;;;;;;;17.20;8.18;;;;;;;1.72;74.81;100545.84;2618837;54;20611;-66
2022/02/26 05:37:49;;;;;;;15.05;7.35;;;;;;;1.79;74.62;100541.06;2619108;54;20576;-66
2022/02/26 05:40:22;;;;;;;12.48;7.05;;;;;;;1.85;74.24;100540.72;2619128;54;20085;-66
2022/02/26 05:42:51;;;;;;;12.63;7.32;;;;;;;1.81;74.21;100542.66;2619009;54;20035;-68
2022/02/26 05:45:21;;;;;;;13.18;7.60;;;;;;;1.68;74.48;100547.78;2618917;54;20076;-65
2022/02/26 05:47:50;;;;;;;14.75;8.05;;;;;;;1.65;74.10;100550.59;2618745;54;20033;-65
2022/02/26 05:50:20;;;;;;;18.38;8.80;;;;;;;1.58;74.39;100551.88;2618865;54;20541;-65
2022/02/26 05:52:50;;;;;;;14.13;7.85;;;;;;;1.54;74.50;100547.78;2619178;54;20042;-66
2022/02/26 05:55:22;;;;;;;16.05;7.95;;;;;;;1.51;74.20;100557.53;2619165;54;20039;-66
2022/02/26 05:57:52;;;;;;;18.33;8.55;;;;;;;1.39;74.14;100562.59;2619685;39;20434;-67
2022/02/26 06:00:21;;;;;;;20.13;8.35;;;;;;;1.29;74.64;100565.81;2619708;39;20442;-66
2022/02/26 06:02:51;;;;;;;14.95;7.45;;;;;;;1.13;74.53;100563.25;2619098;54;20065;-66
2022/02/26 06:05:21;;;;;;;11.30;6.15;;;;;;;1.00;75.37;100570.94;2619249;54;20079;-66
2022/02/26 06:07:50;;;;;;;11.02;6.70;;;;;;;1.07;75.49;100571.44;2619667;39;20449;-66
2022/02/26 06:10:23;;;;;;;14.75;7.45;;;;;;;1.19;75.00;100568.13;2619428;54;20061;-66
2022/02/26 06:12:52;;;;;;;11.93;5.40;;;;;;;1.07;74.77;100566.25;2619429;54;20038;-66
2022/02/26 06:15:22;;;;;;;14.25;7.10;;;;;;;0.97;74.99;100571.13;2619436;54;20042;-66
2022/02/26 06:17:52;;;;;;;12.57;6.30;;;;;;;0.88;75.11;100576.84;2618784;47;20537;-66
2022/02/26 06:20:21;;;;;;;11.65;6.72;;;;;;;0.85;75.45;100572.66;2619820;54;20033;-66
2022/02/26 06:22:51;;;;;;;16.80;7.07;;;;;;;0.95;75.30;100573.81;2619616;39;20464;-66
2022/02/26 06:25:23;;;;;;;16.65;7.90;;;;;;;0.85;75.27;100572.66;2618821;39;20453;-65
2022/02/26 06:27:53;;;;;;;9.80;5.30;;;;;;;0.80;74.89;100577.28;2619591;39;20433;-65
2022/02/26 06:30:26;;;;;;;17.35;7.28;;;;;;;0.78;75.27;100570.50;2618475;54;20073;-66
2022/02/26 06:32:56;;;;;;;10.80;6.53;;;;;;;0.87;75.70;100588.22;2620715;54;20560;-66
2022/02/26 06:35:28;;;;;;;11.55;6.15;;;;;;;0.89;75.28;100581.13;2618383;54;20030;-66
2022/02/26 06:37:58;;;;;;;14.13;5.57;;;;;;;0.87;75.03;100583.00;2618935;47;20138;-66
2022/02/26 06:40:31;;;;;;;22.50;9.95;;;;;;;0.87;75.19;100585.59;2622854;54;20022;-67
2022/02/26 06:43:01;;;;;;;13.27;7.45;;;;;;;0.81;75.13;100584.16;2622773;47;20557;-67
2022/02/26 06:45:30;;;;;;;18.88;7.55;;;;;;;0.74;74.98;100581.09;2622781;47;20026;-68
2022/02/26 06:48:00;;;;;;;10.52;6.10;;;;;;;0.72;75.52;100584.69;2623405;54;20073;-66
2022/02/26 06:50:32;;;;;;;13.18;5.97;;;;;;;0.73;75.41;100592.44;2623654;54;20545;-65
2022/02/26 06:53:02;;;;;;;14.48;7.18;;;;;;;0.83;75.83;100597.13;2622977;54;20037;-66
2022/02/26 06:55:35;;;;;;;13.55;6.53;;;;;;;0.88;75.07;100587.28;2623252;54;20525;-67
2022/02/26 06:58:05;;;;;;;17.10;6.78;;;;;;;0.88;75.70;100587.28;2620694;54;20031;-66
2022/02/26 07:00:35;;;;;;;13.07;6.50;;;;;;;0.96;75.42;100585.91;2618823;47;20053;-65
2022/02/26 07:03:04;;;;;;;13.57;6.70;;;;;;;1.04;75.62;100589.84;2619186;54;20033;-65
2022/02/26 07:05:36;;;;;;;14.13;7.53;;;;;;;1.11;74.88;100593.78;2620670;54;20042;-65
2022/02/26 07:08:06;;;;;;;11.27;5.95;;;;;;;1.07;74.73;100594.88;2622861;54;20041;-65
2022/02/26 07:10:40;;;;;;;12.00;6.03;;;;;;;1.03;74.42;100594.22;2622057;47;20029;-65
2022/02/26 07:13:09;;;;;;;15.73;7.50;;;;;;;0.97;74.44;100597.16;2621963;54;20090;-66
2022/02/26 07:15:39;;;;;;;14.32;7.07;;;;;;;1.00;75.03;100594.38;2619892;47;20030;-66
2022/02/26 07:18:11;;;;;;;20.77;8.20;;;;;;;1.00;74.99;100597.00;2619094;54;20030;-66
2022/02/26 07:20:41;;;;;;;16.70;7.60;;;;;;;1.08;74.76;100606.97;2619108;54;20046;-65
2022/02/26 07:23:10;;;;;;;15.52;6.85;;;;;;;1.08;74.72;100607.81;2619879;54;20081;-65
2022/02/26 07:25:45;;;;;;;12.25;6.78;;;;;;;1.13;74.70;100594.53;2619158;54;20034;-65
2022/02/26 07:28:15;;;;;;;24.50;9.82;;;;;;;1.16;74.65;100608.22;2618951;54;20038;-65
2022/02/26 07:30:46;;;;;;;17.88;8.25;;;;;;;1.16;74.89;100604.78;2619538;54;20039;-65
2022/02/26 07:33:15;;;;;;;18.42;8.48;;;;;;;1.27;74.70;100609.38;2619400;39;20452;-65
2022/02/26 07:35:45;;;;;;;19.00;8.38;;;;;;;1.28;74.51;100608.44;2619149;54;20551;-65
2022/02/26 07:38:14;;;;;;;19.55;8.57;;;;;;;1.26;74.23;100605.91;2623183;54;20046;-65
2022/02/26 07:40:48;;;;;;;19.52;8.10;;;;;;;1.31;74.62;100605.66;2622978;54;20030;-67
2022/02/26 07:43:19;;;;;;;18.02;7.75;;;;;;;1.40;74.40;100618.16;2621528;54;20050;-66
2022/02/26 07:45:48;;;;;;;13.32;7.20;;;;;;;1.51;74.20;100627.91;2622242;54;20312;-65
2022/02/26 07:48:18;;;;;;;15.20;8.02;;;;;;;1.53;73.80;100619.09;2619022;54;20077;-65
2022/02/26 07:50:49;;;;;;;13.82;6.88;;;;;;;1.59;73.51;100620.47;2619134;54;20117;-65
2022/02/26 07:53:18;;;;;;;17.58;7.68;;;;;;;1.58;73.35;100627.47;2619193;54;20038;-66
2022/02/26 07:55:54;;;;;;;11.23;6.53;;;;;;;1.64;73.71;100627.13;2619012;54;20057;-66
2022/02/26 07:58:23;;;;;;;9.20;5.85;;;;;;;1.77;74.06;100635.06;2618865;54;20038;-66
2022/02/26 08:00:53;;;;;;;13.98;6.47;;;;;;;1.92;73.39;100633.31;2618940;54;20042;-67
2022/02/26 08:03:23;;;;;;;17.98;8.05;;;;;;;1.99;73.22;100632.81;2619154;54;20029;-66
2022/02/26 08:05:53;;;;;;;16.00;8.40;;;;;;;2.03;73.10;100635.25;2618185;51;20034;-66
2022/02/26 08:08:23;;;;;;;17.63;8.65;;;;;;;2.08;73.15;100638.41;2618969;54;20058;-66
2022/02/26 08:10:57;;;;;;;12.60;7.50;;;;;;;2.27;73.16;100636.34;2619345;54;20076;-66
2022/02/26 08:13:27;;;;;;;17.83;7.80;;;;;;;2.40;72.93;100642.47;2618939;54;20061;-65
2022/02/26 08:15:56;;;;;;;16.63;7.65;;;;;;;2.42;72.20;100629.34;2618686;54;20041;-65
2022/02/26 08:18:26;;;;;;;14.77;6.18;;;;;;;2.48;72.29;100645.44;2618838;54;20035;-66
2022/02/26 08:20:58;;;;;;;18.80;8.23;;;;;;;2.65;72.74;100636.59;2618926;54;20026;-66
2022/02/26 08:23:28;;;;;;;12.65;6.47;;;;;;;2.85;72.08;100655.34;2618843;54;20053;-66
2022/02/26 08:26:01;;;;;;;11.68;6.35;;;;;;;2.98;71.95;100654.50;2618766;54;20043;-66
2022/02/26 08:28:31;;;;;;;14.68;6.50;;;;;;;3.04;71.09;100647.19;2618100;46;20034;-67
2022/02/26 08:31:00;;;;;;;12.15;7.55;;;;;;;3.08;70.98;100646.03;2619183;54;20050;-66
2022/02/26 08:33:30;;;;;;;18.85;6.32;;;;;;;3.19;71.00;100648.81;2619513;54;20056;-66
2022/02/26 08:36:02;;;;;;;16.13;7.28;;;;;;;3.33;71.37;100646.09;2620824;54;20125;-67
2022/02/26 08:38:31;;;;;;;13.57;6.85;;;;;;;3.43;70.59;100654.19;2621108;54;20510;-67
2022/02/26 08:41:05;;;;;;;15.57;6.78;;;;;;;3.47;69.84;100647.81;2618810;54;20034;-66
2022/02/26 08:43:35;;;;;;;17.75;6.82;;;;;;;3.41;69.07;100651.66;2618724;54;20050;-67
2022/02/26 08:46:05;;;;;;;15.35;7.10;;;;;;;3.53;69.59;100654.41;2618006;47;20042;-67
2022/02/26 08:48:34;;;;;;;18.10;6.68;;;;;;;3.67;69.67;100652.56;2618665;54;20035;-65
2022/02/26 08:51:06;;;;;;;18.20;5.43;;;;;;;3.81;68.78;100645.56;2618893;54;20038;-65
2022/02/26 08:53:35;;;;;;;21.08;6.35;;;;;;;3.88;68.41;100655.50;2618735;54;20156;-65
2022/02/26 08:56:08;;;;;;;16.90;6.43;;;;;;;3.98;68.24;100653.91;2618558;54;20057;-66
2022/02/26 08:58:38;;;;;;;14.10;6.80;;;;;;;4.11;67.98;100655.69;2619043;54;20050;-66
2022/02/26 09:01:09;;;;;;;16.17;6.65;;;;;;;4.23;67.82;100657.47;2619610;54;20063;-65
2022/02/26 09:03:39;;;;;;;12.27;6.50;;;;;;;4.29;67.27;100664.91;2619551;54;20041;-67
2022/02/26 09:06:10;;;;;;;17.55;6.75;;;;;;;4.40;67.16;100662.34;2618702;54;20037;-67
2022/02/26 09:08:40;;;;;;;17.15;6.82;;;;;;;4.55;67.25;100665.69;2618510;47;20041;-65
2022/02/26 09:11:14;;;;;;;14.38;6.28;;;;;;;4.64;66.92;100665.03;2618074;54;20027;-65
2022/02/26 09:13:46;;;;;;;18.77;6.90;;;;;;;4.77;66.29;100658.91;2618527;54;20042;-66
2022/02/26 09:16:17;;;;;;;17.45;6.45;;;;;;;4.88;66.28;100661.59;2618477;54;20034;-63
2022/02/26 09:18:47;;;;;;;14.80;6.40;;;;;;;5.03;65.64;100655.25;2618655;54;20030;-64
2022/02/26 09:21:17;;;;;;;17.13;6.63;;;;;;;5.28;65.15;100661.31;2618969;54;20038;-65
2022/02/26 09:23:46;;;;;;;16.38;6.30;;;;;;;5.54;64.49;100647.09;2618125;47;20081;-64
2022/02/26 09:26:18;;;;;;;14.00;3.80;;;;;;;5.58;61.64;100663.44;2618574;54;20026;-65
2022/02/26 09:28:49;;;;;;;17.35;5.20;;;;;;;5.49;61.23;100651.84;2618737;54;20031;-65
2022/02/26 09:31:19;;;;;;;18.27;5.25;;;;;;;5.67;59.82;100657.50;2618683;54;20565;-65
2022/02/26 09:33:48;;;;;;;17.45;4.90;;;;;;;5.59;57.87;100658.09;2618603;39;20457;-65
2022/02/26 09:36:18;;;;;;;10.07;2.80;;;;;;;5.54;58.50;100654.13;2618533;54;20026;-65
2022/02/26 09:38:48;;;;;;;16.65;3.95;;;;;;;5.79;58.58;100666.22;2618716;54;20030;-64
2022/02/26 09:41:22;;;;;;;15.05;4.18;;;;;;;5.95;58.06;100662.34;2618160;54;20038;-65
2022/02/26 09:43:52;;;;;;;16.95;3.35;;;;;;;6.04;55.40;100652.97;2618609;54;20131;-65
2022/02/26 09:46:26;;;;;;;12.40;4.05;;;;;;;5.95;54.42;100653.63;2618404;54;20034;-66
2022/02/26 09:48:55;;;;;;;16.65;3.70;;;;;;;5.94;54.45;100662.47;2617544;47;20069;-65
2022/02/26 09:51:25;;;;;;;12.77;3.25;;;;;;;6.01;54.78;100662.84;2618672;54;20042;-67
2022/02/26 09:53:56;;;;;;;11.50;3.45;;;;;;;6.16;54.81;100662.50;2617991;54;20082;-64
2022/02/26 09:56:28;;;;;;;14.02;3.35;;;;;;;6.23;54.06;100656.75;2618459;54;20042;-67
2022/02/26 09:58:58;;;;;;;15.68;3.30;;;;;;;6.14;52.74;100664.41;2617749;47;20030;-65
2022/02/26 10:01:28;;;;;;;18.85;4.30;;;;;;;6.09;53.39;100669.19;2617747;54;20041;-65
2022/02/26 10:04:09;;;;;;;14.82;3.72;;;;;;;6.15;51.95;100662.63;2618408;54;20034;-66
2022/02/26 10:06:39;;;;;;;12.95;2.78;;;;;;;6.13;51.38;100660.13;2619774;54;20026;-69
2022/02/26 10:09:13;;;;;;;11.65;2.95;;;;;;;6.15;51.69;100655.56;2620603;54;20030;-70
2022/02/26 10:11:45;;;;;;;10.73;2.88;;;;;;;6.25;51.28;100652.25;2620468;54;20023;-67
2022/02/26 10:14:17;;;;;;;12.88;3.10;;;;;;;6.30;50.78;100653.53;2621198;54;20031;-66
2022/02/26 10:16:51;;;;;;;11.38;3.00;;;;;;;6.32;51.41;100650.78;2619357;54;20039;-65
2022/02/26 10:19:23;;;;;;;14.20;2.78;;;;;;;6.43;51.68;100656.03;2619818;54;20026;-65
2022/02/26 10:21:53;;;;;;;10.55;3.13;;;;;;;6.43;50.92;100653.41;2619179;54;20030;-64
2022/02/26 10:24:23;;;;;;;12.48;3.10;;;;;;;6.43;50.88;100654.25;2618576;54;20077;-65
2022/02/26 10:26:57;;;;;;;10.05;2.92;;;;;;;6.41;49.84;100663.22;2618321;54;20031;-65
2022/02/26 10:29:26;;;;;;;14.35;3.13;;;;;;;6.29;51.25;100657.13;2618716;54;20038;-67
2022/02/26 10:32:00;;;;;;;8.52;2.88;;;;;;;6.29;51.12;100657.13;2620611;54;20042;-64
2022/02/26 10:34:33;;;;;;;10.15;3.10;;;;;;;6.18;50.91;100651.88;2620478;54;20568;-65
2022/02/26 10:37:08;;;;;;;13.77;3.40;;;;;;;6.22;51.15;100641.97;2620299;39;20449;-63
2022/02/26 10:39:41;;;;;;;12.65;3.70;;;;;;;6.32;51.28;100642.91;2618533;54;20050;-65
2022/02/26 10:42:20;;;;;;;13.20;2.83;;;;;;;6.37;49.94;100644.25;2617831;47;20030;-63
2022/02/26 10:45:03;;;;;;;8.85;2.55;;;;;;;6.45;49.28;100647.09;2617551;47;20022;-63
2022/02/26 10:47:36;;;;;;;15.23;3.33;;;;;;;6.52;48.55;100636.91;2618419;54;20027;-63
2022/02/26 10:50:17;;;;;;;11.27;2.77;;;;;;;6.55;48.19;100636.69;2617683;47;20030;-64
2022/02/26 10:52:58;;;;;;;9.27;2.85;;;;;;;6.43;48.02;100629.78;2619501;39;20422;-67
2022/02/26 10:55:53;;;;;;;11.32;2.65;;;;;;;6.40;48.08;100630.00;2619130;54;20042;-64
2022/02/26 10:58:28;;;;;;;12.38;2.50;;;;;;;6.42;48.34;100628.94;2619323;54;20026;-66
2022/02/26 11:01:02;;;;;;;10.07;2.33;;;;;;;6.49;47.53;100631.06;2619255;54;20037;-65
2022/02/26 11:03:32;;;;;;;11.95;2.72;;;;;;;6.53;47.57;100635.13;2618521;47;20033;-65
2022/02/26 11:06:03;;;;;;;14.38;3.83;;;;;;;6.64;47.46;100630.69;2618833;54;20026;-65
2022/02/26 11:08:33;;;;;;;13.18;2.78;;;;;;;6.64;46.80;100632.47;2618996;54;20038;-65
2022/02/26 11:11:06;;;;;;;9.90;2.83;;;;;;;6.54;47.42;100632.41;2619075;54;20026;-70
2022/02/26 11:13:40;;;;;;;6.80;2.08;;;;;;;6.51;47.03;100626.53;2618461;54;20533;-69
2022/02/26 11:16:10;;;;;;;7.32;2.33;;;;;;;6.61;46.36;100624.84;2618545;54;20046;-64
2022/02/26 11:18:42;;;;;;;7.72;2.58;;;;;;;6.61;45.97;100617.81;2622650;54;20033;-63
2022/02/26 11:21:17;;;;;;;15.55;2.60;;;;;;;6.66;45.91;100620.06;2622756;54;20027;-67
2022/02/26 11:23:48;;;;;;;17.02;2.28;;;;;;;6.59;46.54;100617.09;2624386;54;20037;-65
2022/02/26 11:26:19;;;;;;;9.35;2.45;;;;;;;6.71;46.02;100612.66;2624532;54;20134;-65
2022/02/26 11:29:05;;;;;;;11.13;2.65;;;;;;;6.82;45.36;100614.41;2624732;54;20118;-65
2022/02/26 11:31:40;;;;;;;12.45;3.03;;;;;;;6.78;46.39;100608.56;2625029;54;20541;-65
2022/02/26 11:34:10;;;;;;;11.52;2.65;;;;;;;6.79;46.47;100612.03;2623921;54;20030;-64
2022/02/26 11:36:52;;;;;;;12.18;2.88;;;;;;;6.76;46.06;100607.00;2624891;54;20030;-65
2022/02/26 11:39:27;;;;;;;10.18;2.15;;;;;;;6.83;46.38;100602.94;2624385;54;20026;-65
2022/02/26 11:42:39;;;;;;;13.90;3.13;;;;;;;7.04;45.71;100602.97;2624654;47;20030;-65
2022/02/26 11:45:13;;;;;;;8.52;2.72;;;;;;;7.13;45.33;100602.22;2623996;54;20022;-65